createdAt,value
2022-08-26T00:02:06.200Z,40.80
2022-08-26T00:04:34.343Z,42.65
2022-08-26T00:07:01.921Z,37.22
2022-08-26T00:09:29.761Z,40.92
2022-08-26T00:11:57.279Z,38.72
2022-08-26T00:14:29.658Z,36.10
2022-08-26T00:19:26.259Z,28.38
2022-08-26T00:21:54.349Z,28.50
2022-08-26T00:24:23.553Z,32.13
2022-08-26T00:26:51.552Z,25.90
2022-08-26T00:29:19.349Z,32.92
2022-08-26T00:31:48.972Z,26.23
2022-08-26T00:34:19.467Z,23.10
2022-08-26T00:36:51.839Z,25.27
2022-08-26T00:39:20.939Z,27.75
2022-08-26T00:41:49.199Z,21.88
2022-08-26T00:44:16.800Z,26.25
2022-08-26T00:46:49.471Z,32.92
2022-08-26T00:49:34.691Z,27.92
2022-08-26T00:52:05.771Z,39.28
2022-08-26T00:54:46.883Z,34.30
2022-08-26T00:57:18.422Z,33.55
2022-08-26T00:59:56.869Z,27.27
2022-08-26T01:02:25.037Z,31.48
2022-08-26T01:04:58.029Z,31.65
2022-08-26T01:07:27.709Z,38.17
2022-08-26T01:10:03.253Z,32.92
2022-08-26T01:12:40.123Z,36.63
2022-08-26T01:15:13.876Z,32.70
2022-08-26T01:17:41.993Z,31.90
2022-08-26T01:20:33.243Z,30.52
2022-08-26T01:23:09.114Z,34.42
2022-08-26T01:25:42.998Z,26.52
2022-08-26T01:30:44.905Z,26.20
2022-08-26T01:33:17.582Z,23.85
2022-08-26T01:35:47.263Z,24.65
2022-08-26T01:38:17.403Z,28.67
2022-08-26T01:40:46.133Z,21.58
2022-08-26T01:43:22.529Z,23.27
2022-08-26T01:45:54.776Z,23.15
2022-08-26T01:48:25.854Z,21.38
2022-08-26T01:50:54.913Z,26.33
2022-08-26T01:53:24.311Z,22.30
2022-08-26T01:55:56.734Z,20.40
2022-08-26T01:58:39.165Z,25.30
2022-08-26T02:01:06.965Z,23.38
2022-08-26T02:03:51.019Z,23.17
2022-08-26T02:06:19.923Z,22.10
2022-08-26T02:08:52.215Z,27.88
2022-08-26T02:11:20.709Z,19.67
2022-08-26T02:13:59.973Z,25.73
2022-08-26T02:16:31.805Z,23.50
2022-08-26T02:19:02.621Z,31.83
2022-08-26T02:21:32.601Z,29.92
2022-08-26T02:24:12.243Z,34.20
2022-08-26T02:26:40.909Z,35.45
2022-08-26T02:29:20.317Z,29.42
2022-08-26T02:31:49.031Z,29.30
2022-08-26T02:34:22.673Z,30.95
2022-08-26T02:36:50.846Z,25.73
2022-08-26T02:39:21.937Z,34.13
2022-08-26T02:41:50.097Z,31.85
2022-08-26T02:44:18.928Z,27.02
2022-08-26T02:46:47.390Z,20.30
2022-08-26T02:49:17.060Z,24.33
2022-08-26T02:51:45.089Z,24.38
2022-08-26T02:54:14.082Z,20.27
2022-08-26T02:56:41.983Z,21.63
2022-08-26T02:59:12.423Z,24.55
2022-08-26T03:01:40.856Z,35.20
2022-08-26T03:04:12.762Z,26.00
2022-08-26T03:06:42.343Z,34.33
2022-08-26T03:09:10.329Z,25.30
2022-08-26T03:11:47.333Z,21.88
2022-08-26T03:14:15.319Z,24.58
2022-08-26T03:16:43.572Z,26.88
2022-08-26T03:19:11.513Z,29.40
2022-08-26T03:21:39.499Z,26.90
2022-08-26T03:24:10.062Z,29.83
2022-08-26T03:26:38.041Z,36.42
2022-08-26T03:29:25.463Z,28.92
2022-08-26T03:31:53.782Z,27.88
2022-08-26T03:34:21.349Z,21.42
2022-08-26T03:36:50.309Z,38.35
2022-08-26T03:39:17.831Z,32.35
2022-08-26T03:41:45.454Z,23.42
2022-08-26T03:44:13.572Z,22.60
2022-08-26T03:46:41.225Z,22.88
2022-08-26T03:49:11.638Z,36.33
2022-08-26T03:51:39.771Z,38.20
2022-08-26T03:54:09.787Z,26.08
2022-08-26T03:56:37.660Z,30.38
2022-08-26T03:59:07.818Z,26.40
2022-08-26T04:01:36.183Z,25.20
2022-08-26T04:04:04.552Z,21.92
2022-08-26T04:06:39.774Z,30.35
2022-08-26T04:09:13.963Z,30.75
2022-08-26T04:11:44.968Z,26.83
2022-08-26T04:14:21.292Z,25.50
2022-08-26T04:16:49.888Z,21.38
2022-08-26T04:19:18.908Z,31.10
2022-08-26T04:21:48.609Z,39.55
2022-08-26T04:24:19.979Z,32.05
2022-08-26T04:26:49.082Z,35.35
2022-08-26T04:29:20.122Z,31.52
2022-08-26T04:31:48.364Z,25.75
2022-08-26T04:34:17.161Z,23.63
2022-08-26T04:36:44.774Z,27.25
2022-08-26T04:39:12.954Z,24.70
2022-08-26T04:41:40.939Z,23.50
2022-08-26T04:44:08.420Z,16.98
2022-08-26T04:46:43.662Z,19.25
2022-08-26T04:49:12.783Z,20.48
2022-08-26T04:51:40.811Z,25.55
2022-08-26T04:54:08.803Z,20.63
2022-08-26T04:56:39.064Z,21.45
2022-08-26T04:59:16.639Z,29.25
2022-08-26T05:01:47.086Z,30.05
2022-08-26T05:04:19.039Z,33.22
2022-08-26T05:06:48.350Z,31.15
2022-08-26T05:09:18.618Z,22.63
2022-08-26T05:11:48.560Z,32.22
2022-08-26T05:14:23.407Z,21.77
2022-08-26T05:16:51.825Z,26.83
2022-08-26T05:19:19.675Z,28.30
2022-08-26T05:21:48.854Z,27.10
2022-08-26T05:24:18.038Z,26.55
2022-08-26T05:26:48.013Z,27.85
2022-08-26T05:29:16.843Z,24.40
2022-08-26T05:31:45.973Z,29.25
2022-08-26T05:34:13.584Z,33.53
2022-08-26T05:36:41.673Z,24.70
2022-08-26T05:39:10.551Z,24.67
2022-08-26T05:41:41.340Z,26.35
2022-08-26T05:44:11.762Z,26.33
2022-08-26T05:46:41.040Z,24.25
2022-08-26T05:49:12.482Z,31.15
2022-08-26T05:51:45.370Z,32.15
2022-08-26T05:54:14.323Z,27.40
2022-08-26T05:56:53.843Z,25.42
2022-08-26T05:59:24.559Z,30.50
2022-08-26T06:01:55.093Z,33.17
2022-08-26T06:04:27.546Z,37.03
2022-08-26T06:09:24.523Z,37.17
2022-08-26T06:11:52.005Z,30.45
2022-08-26T06:14:21.269Z,30.25
2022-08-26T06:16:49.989Z,27.67
2022-08-26T06:19:17.817Z,32.38
2022-08-26T06:21:47.159Z,28.95
2022-08-26T06:24:37.892Z,26.92
2022-08-26T06:27:11.375Z,34.03
2022-08-26T06:29:39.281Z,27.20
2022-08-26T06:32:06.984Z,30.63
2022-08-26T06:34:36.381Z,32.47
2022-08-26T06:37:04.055Z,28.52
2022-08-26T06:39:34.402Z,44.33
2022-08-26T06:42:06.076Z,34.78
2022-08-26T06:44:34.775Z,25.48
2022-08-26T06:47:02.243Z,31.85
2022-08-26T06:49:29.904Z,32.88
2022-08-26T06:52:00.481Z,26.67
2022-08-26T06:54:31.845Z,24.48
2022-08-26T06:57:01.249Z,23.85
2022-08-26T06:59:28.892Z,22.23
2022-08-26T07:01:57.038Z,25.90
2022-08-26T07:04:25.144Z,29.52
2022-08-26T07:06:56.561Z,23.63
2022-08-26T07:09:27.645Z,27.92
2022-08-26T07:11:58.662Z,31.20
2022-08-26T07:14:26.758Z,31.35
2022-08-26T07:16:54.847Z,31.45
2022-08-26T07:19:30.444Z,31.42
2022-08-26T07:22:04.401Z,36.15
2022-08-26T07:24:35.114Z,28.17
2022-08-26T07:27:05.957Z,28.88
2022-08-26T07:29:35.224Z,26.58
2022-08-26T07:32:03.624Z,24.15
2022-08-26T07:34:33.430Z,32.80
2022-08-26T07:37:01.228Z,23.92
2022-08-26T07:39:31.686Z,29.80
2022-08-26T07:42:03.813Z,31.50
2022-08-26T07:44:39.874Z,33.90
2022-08-26T07:47:10.441Z,19.55
2022-08-26T07:49:55.250Z,25.48
2022-08-26T07:52:26.623Z,24.00
2022-08-26T07:55:00.311Z,24.67
2022-08-26T07:57:29.081Z,28.52
2022-08-26T07:59:57.631Z,27.67
2022-08-26T08:02:25.892Z,37.05
2022-08-26T08:04:54.699Z,25.08
2022-08-26T08:07:38.289Z,30.10
2022-08-26T08:12:40.623Z,32.95
2022-08-26T08:15:10.062Z,34.88
2022-08-26T08:17:37.624Z,33.92
2022-08-26T08:20:07.042Z,32.08
2022-08-26T08:22:35.522Z,39.17
2022-08-26T08:25:06.249Z,35.45
2022-08-26T08:27:37.502Z,32.58
2022-08-26T08:30:06.412Z,25.50
2022-08-26T08:32:34.371Z,28.70
2022-08-26T08:35:02.657Z,31.55
2022-08-26T08:37:38.493Z,24.73
2022-08-26T08:40:08.926Z,36.40
2022-08-26T08:42:44.444Z,28.42
2022-08-26T08:45:26.319Z,33.53
2022-08-26T08:47:58.402Z,30.63
2022-08-26T08:50:30.744Z,25.85
2022-08-26T08:53:16.698Z,22.83
2022-08-26T08:56:17.262Z,24.17
2022-08-26T08:58:49.817Z,21.25
2022-08-26T09:01:45.437Z,33.83
2022-08-26T09:04:32.038Z,29.13
2022-08-26T09:07:01.950Z,29.27
2022-08-26T09:09:47.459Z,36.00
2022-08-26T09:12:20.814Z,25.17
2022-08-26T09:15:03.924Z,29.70
2022-08-26T09:17:55.339Z,25.75
2022-08-26T09:20:43.703Z,35.65
2022-08-26T09:23:14.524Z,23.95
2022-08-26T09:25:50.733Z,29.08
2022-08-26T09:28:22.169Z,24.25
2022-08-26T09:31:29.509Z,27.52
2022-08-26T09:34:22.571Z,22.08
2022-08-26T09:36:55.503Z,32.83
2022-08-26T09:39:26.048Z,46.50
2022-08-26T09:42:12.092Z,37.60
2022-08-26T16:08:56.604Z,13.35
2022-08-26T16:11:24.927Z,13.20
2022-08-26T16:13:52.882Z,16.77
2022-08-26T16:16:21.647Z,13.65
2022-08-26T16:18:49.762Z,15.60
2022-08-26T16:21:27.934Z,19.05
2022-08-26T16:23:56.837Z,14.07
2022-08-26T16:26:32.900Z,13.10
2022-08-26T16:29:06.671Z,18.65
2022-08-26T16:34:01.810Z,10.15
2022-08-26T16:36:29.700Z,10.35
2022-08-26T16:38:57.343Z,15.23
2022-08-26T16:41:26.950Z,18.05
2022-08-26T16:43:55.342Z,10.10
2022-08-26T16:46:25.997Z,12.48
2022-08-26T16:48:58.208Z,11.75
2022-08-26T16:51:28.056Z,11.57
2022-08-26T16:53:57.438Z,12.88
2022-08-26T16:56:33.966Z,8.48
2022-08-26T16:59:08.019Z,9.77
2022-08-26T17:01:35.778Z,7.32
2022-08-26T17:04:03.677Z,12.98
2022-08-26T17:06:31.260Z,11.25
2022-08-26T17:08:58.761Z,12.07
2022-08-26T17:11:26.437Z,10.02
2022-08-26T17:13:53.951Z,11.55
2022-08-26T17:16:26.365Z,12.43
2022-08-26T17:18:56.704Z,10.13
2022-08-26T17:21:26.016Z,13.68
2022-08-26T17:23:54.090Z,10.45
2022-08-26T17:26:21.907Z,14.23
2022-08-26T17:28:50.312Z,11.70
2022-08-26T17:31:18.326Z,11.88
2022-08-26T17:33:48.993Z,10.55
2022-08-26T17:36:23.242Z,12.82
2022-08-26T17:38:57.050Z,14.73
2022-08-26T17:41:24.947Z,12.95
2022-08-26T17:43:52.711Z,13.60
2022-08-26T17:46:20.391Z,11.93
2022-08-26T17:48:48.476Z,13.05
2022-08-26T17:51:19.371Z,15.50
2022-08-26T17:53:48.069Z,15.15
2022-08-26T17:56:19.650Z,10.63
2022-08-26T17:58:51.317Z,11.48
2022-08-26T18:01:21.634Z,11.73
2022-08-26T18:03:50.033Z,12.52
2022-08-26T18:06:18.231Z,10.98
2022-08-26T18:08:46.301Z,10.25
2022-08-26T18:11:17.761Z,10.50
2022-08-26T18:13:47.189Z,7.65
2022-08-26T18:16:17.777Z,8.75
2022-08-26T18:18:46.992Z,8.55
2022-08-26T18:21:22.460Z,10.00
2022-08-26T18:23:51.267Z,17.30
2022-08-26T18:26:22.437Z,14.95
2022-08-26T18:28:50.093Z,14.43
2022-08-26T18:31:18.544Z,9.63
2022-08-26T18:33:46.907Z,12.93
2022-08-26T18:36:20.221Z,11.25
2022-08-26T18:38:50.459Z,15.18
2022-08-26T18:41:21.019Z,10.55
2022-08-26T18:43:50.536Z,9.32
2022-08-26T18:46:23.032Z,10.40
2022-08-26T18:48:51.552Z,16.17
2022-08-26T18:51:21.481Z,15.48
2022-08-26T18:53:50.024Z,16.63
2022-08-26T18:56:18.779Z,11.80
2022-08-26T18:58:46.908Z,13.13
2022-08-26T19:01:15.382Z,11.85
2022-08-26T19:03:43.498Z,12.60
2022-08-26T19:06:20.291Z,12.40
2022-08-26T19:08:49.772Z,9.77
2022-08-26T19:11:31.192Z,11.52
2022-08-26T19:14:04.180Z,10.85
2022-08-26T19:16:31.857Z,7.85
2022-08-26T19:19:01.135Z,11.88
2022-08-26T19:21:29.491Z,11.43
2022-08-26T19:24:02.725Z,16.05
2022-08-26T19:26:31.372Z,12.32
2022-08-26T19:28:59.840Z,16.40
2022-08-26T19:31:28.405Z,13.63
2022-08-26T19:33:58.174Z,15.90
2022-08-26T19:36:26.814Z,10.65
2022-08-26T19:38:56.734Z,8.95
2022-08-26T19:41:37.276Z,11.80
2022-08-26T19:44:09.670Z,12.32
2022-08-26T19:49:06.588Z,11.75
2022-08-26T19:51:35.291Z,12.45
2022-08-26T19:54:03.451Z,8.02
2022-08-26T19:56:31.222Z,8.98
2022-08-26T19:58:58.782Z,8.85
2022-08-26T20:01:26.403Z,7.20
2022-08-26T20:06:26.390Z,9.45
2022-08-26T20:08:54.107Z,7.63
2022-08-26T20:11:24.355Z,11.75
2022-08-26T20:13:51.853Z,11.43
2022-08-26T20:16:19.857Z,15.70
2022-08-26T20:19:05.929Z,13.07
2022-08-26T20:21:39.201Z,10.55
2022-08-26T20:24:15.732Z,13.10
2022-08-26T20:26:44.682Z,17.25
2022-08-26T20:29:17.354Z,15.02
2022-08-26T20:31:45.796Z,16.42
2022-08-26T20:34:15.312Z,16.98
2022-08-26T20:36:43.368Z,17.20
2022-08-26T20:39:11.891Z,16.95
2022-08-26T20:41:40.545Z,12.68
2022-08-26T20:44:09.601Z,10.63
2022-08-26T20:46:37.439Z,13.65
2022-08-26T20:49:05.969Z,9.68
2022-08-26T20:51:37.493Z,11.23
2022-08-26T20:54:07.148Z,14.68
2022-08-26T20:56:35.710Z,13.90
2022-08-26T20:59:05.778Z,14.63
2022-08-26T21:01:36.240Z,13.25
2022-08-26T21:04:07.447Z,17.75
2022-08-26T21:06:35.612Z,16.27
2022-08-26T21:09:05.816Z,11.80
2022-08-26T21:11:34.871Z,14.25
2022-08-26T21:14:15.633Z,26.88
2022-08-26T21:16:45.205Z,19.55
2022-08-26T21:19:15.641Z,21.27
2022-08-26T21:21:44.731Z,24.48
2022-08-26T21:24:13.437Z,24.25
2022-08-26T21:26:41.215Z,20.75
2022-08-26T21:29:10.020Z,21.98
2022-08-26T21:31:42.165Z,19.73
2022-08-26T21:34:14.210Z,22.83
2022-08-26T21:36:42.126Z,21.25
2022-08-26T21:39:12.064Z,12.60
2022-08-26T21:41:41.911Z,14.38
2022-08-26T21:44:13.971Z,20.85
2022-08-26T21:46:43.068Z,19.60
2022-08-26T21:49:13.298Z,19.02
2022-08-26T21:51:44.057Z,19.65
2022-08-26T21:54:12.947Z,22.08
2022-08-26T21:56:46.881Z,25.70
2022-08-26T21:59:17.320Z,26.05
2022-08-26T22:01:45.078Z,24.10
2022-08-26T22:04:12.743Z,20.30
2022-08-26T22:06:44.617Z,25.60
2022-08-26T22:09:13.642Z,19.95
2022-08-26T22:11:41.855Z,15.68
2022-08-26T22:14:10.322Z,18.67
2022-08-26T22:16:38.297Z,19.88
2022-08-26T22:19:06.501Z,15.18
2022-08-26T22:21:35.879Z,16.58
2022-08-26T22:24:06.217Z,20.52
2022-08-26T22:26:35.567Z,19.63
2022-08-26T22:29:03.947Z,17.63
2022-08-26T22:31:38.001Z,19.13
2022-08-26T22:34:12.993Z,20.80
2022-08-26T22:36:44.485Z,18.45
2022-08-26T22:39:17.682Z,16.15
2022-08-26T22:41:46.730Z,14.65
2022-08-26T22:44:15.931Z,18.52
2022-08-26T22:46:45.278Z,24.75
2022-08-26T22:49:16.515Z,17.65
2022-08-26T22:51:45.393Z,17.05
2022-08-26T22:54:14.031Z,17.63
2022-08-26T22:56:41.870Z,15.95
2022-08-26T22:59:10.141Z,12.45
2022-08-26T23:01:40.443Z,15.23
2022-08-26T23:04:08.638Z,20.33
2022-08-26T23:06:38.759Z,14.35
2022-08-26T23:09:07.651Z,14.50
2022-08-26T23:11:35.651Z,10.50
2022-08-26T23:14:06.168Z,9.95
2022-08-26T23:16:39.211Z,11.93
2022-08-26T23:19:09.397Z,9.35
2022-08-26T23:21:37.341Z,11.98
2022-08-26T23:24:06.542Z,7.45
2022-08-26T23:26:35.261Z,12.95
2022-08-26T23:29:03.491Z,10.25
2022-08-26T23:31:31.373Z,11.35
2022-08-26T23:34:17.687Z,10.38
2022-08-26T23:36:46.267Z,9.63
2022-08-26T23:39:15.098Z,9.90
2022-08-26T23:41:42.957Z,12.55
2022-08-26T23:44:11.912Z,12.38
2022-08-26T23:46:39.481Z,6.25
2022-08-26T23:49:07.001Z,7.47
2022-08-26T23:51:53.185Z,9.55
2022-08-26T23:54:20.849Z,7.13
2022-08-26T23:56:48.490Z,7.55
2022-08-26T23:59:16.231Z,6.28
